createdAt,value
2019-02-27T00:05:58.007Z,9.90
2019-02-27T00:16:00.188Z,9.90
2019-02-27T00:26:02.566Z,9.80
2019-02-27T00:36:04.518Z,9.80
2019-02-27T00:46:07.542Z,9.70
2019-02-27T00:56:11.976Z,9.70
2019-02-27T01:06:14.812Z,9.60
2019-02-27T01:16:17.846Z,9.60
2019-02-27T01:26:20.082Z,9.50
2019-02-27T01:36:24.527Z,9.50
2019-02-27T01:46:27.859Z,9.40
2019-02-27T01:56:29.862Z,9.30
2019-02-27T02:06:32.510Z,9.20
2019-02-27T02:17:21.350Z,9.20
2019-02-27T02:27:48.535Z,9.10
2019-02-27T02:38:38.003Z,9.20
2019-02-27T02:49:19.071Z,9.20
2019-02-27T03:00:05.060Z,9.00
2019-02-27T03:10:22.098Z,8.90
2019-02-27T03:20:44.175Z,8.90
2019-02-27T03:31:03.225Z,8.90
2019-02-27T03:41:58.481Z,9.10
2019-02-27T03:52:40.284Z,9.10
2019-02-27T04:02:55.221Z,9.00
2019-02-27T04:12:57.369Z,9.00
2019-02-27T04:22:59.617Z,8.90
2019-02-27T04:33:01.613Z,8.80
2019-02-27T04:43:03.532Z,8.80
2019-02-27T04:53:05.663Z,8.80
2019-02-27T05:03:07.852Z,8.70
2019-02-27T05:13:10.292Z,8.60
2019-02-27T05:23:13.089Z,8.50
2019-02-27T05:33:15.060Z,8.50
2019-02-27T05:43:17.232Z,8.40
2019-02-27T05:53:22.130Z,8.40
2019-02-27T06:03:22.967Z,8.20
2019-02-27T06:13:24.906Z,8.20
2019-02-27T06:23:28.647Z,8.20
2019-02-27T06:33:30.779Z,8.20
2019-02-27T06:43:33.045Z,8.20
2019-02-27T06:53:35.285Z,8.10
2019-02-27T07:03:37.539Z,8.10
2019-02-27T07:13:39.791Z,8.20
2019-02-27T07:23:41.885Z,8.20
2019-02-27T07:33:43.859Z,8.30
2019-02-27T07:43:46.123Z,8.40
2019-02-27T07:53:48.477Z,8.40
2019-02-27T08:03:50.448Z,8.70
2019-02-27T08:13:52.678Z,8.80
2019-02-27T08:23:55.261Z,9.00
2019-02-27T08:33:57.519Z,9.20
2019-02-27T08:43:59.787Z,9.50
2019-02-27T08:54:01.956Z,9.80
2019-02-27T09:04:06.069Z,10.10
2019-02-27T09:14:08.199Z,10.40
2019-02-27T09:24:10.145Z,10.70
2019-02-27T09:34:12.184Z,10.90
2019-02-27T09:44:14.315Z,11.20
2019-02-27T09:54:16.491Z,11.30
2019-02-27T10:04:18.808Z,11.40
2019-02-27T10:14:21.014Z,11.50
2019-02-27T10:24:22.994Z,11.80
2019-02-27T10:34:24.967Z,12.20
2019-02-27T10:44:26.891Z,12.80
2019-02-27T10:54:29.169Z,12.90
2019-02-27T11:04:31.241Z,13.00
2019-02-27T11:14:33.471Z,13.70
2019-02-27T11:24:35.393Z,14.10
2019-02-27T11:34:37.582Z,14.10
2019-02-27T11:44:39.608Z,14.50
2019-02-27T11:54:43.321Z,15.10
2019-02-27T12:04:45.822Z,15.70
2019-02-27T12:14:48.056Z,15.70
2019-02-27T12:24:52.561Z,15.50
2019-02-27T12:34:54.087Z,15.80
2019-02-27T12:44:56.378Z,16.20
2019-02-27T12:54:59.071Z,16.40
2019-02-27T13:05:02.650Z,17.10
2019-02-27T13:15:07.361Z,19.00
2019-02-27T13:25:08.834Z,18.10
2019-02-27T13:35:11.188Z,18.60
2019-02-27T13:45:15.951Z,18.40
2019-02-27T13:55:18.215Z,18.30
2019-02-27T14:05:20.494Z,17.70
2019-02-27T14:15:26.833Z,17.70
2019-02-27T14:25:31.049Z,17.80
2019-02-27T14:35:35.213Z,17.80
2019-02-27T14:45:39.476Z,17.90
2019-02-27T14:55:39.348Z,17.30
2019-02-27T15:05:44.713Z,16.80
2019-02-27T15:15:45.186Z,16.70
2019-02-27T15:25:47.586Z,17.00
2019-02-27T15:35:49.515Z,16.60
2019-02-27T15:45:51.969Z,16.40
2019-02-27T15:55:54.369Z,16.30
2019-02-27T16:05:56.606Z,16.20
2019-02-27T16:15:58.581Z,15.80
2019-02-27T16:26:01.653Z,15.60
2019-02-27T16:36:03.042Z,15.20
2019-02-27T16:46:08.642Z,14.90
2019-02-27T16:56:12.010Z,14.70
2019-02-27T17:06:14.129Z,14.50
2019-02-27T17:16:16.865Z,14.20
2019-02-27T17:26:19.014Z,13.90
2019-02-27T17:36:20.982Z,13.60
2019-02-27T17:46:23.457Z,13.40
2019-02-27T17:56:25.413Z,13.20
2019-02-27T18:06:27.373Z,13.00
2019-02-27T18:16:29.349Z,12.80
2019-02-27T18:26:31.351Z,12.70
2019-02-27T18:36:42.424Z,12.50
2019-02-27T18:46:37.460Z,12.40
2019-02-27T18:56:40.347Z,12.30
2019-02-27T19:06:45.790Z,12.20
2019-02-27T19:16:46.710Z,12.10
2019-02-27T19:26:49.478Z,12.00
2019-02-27T19:36:51.835Z,11.90
2019-02-27T19:46:53.918Z,11.90
2019-02-27T19:56:55.897Z,11.70
2019-02-27T20:06:58.304Z,11.70
2019-02-27T20:17:03.454Z,11.60
2019-02-27T20:27:05.457Z,11.50
2019-02-27T20:37:07.455Z,11.40
2019-02-27T20:47:09.664Z,11.30
2019-02-27T20:57:11.657Z,11.20
2019-02-27T21:07:22.049Z,11.20
2019-02-27T21:17:20.880Z,11.10
2019-02-27T21:27:21.943Z,11.20
2019-02-27T21:37:23.947Z,11.50
2019-02-27T21:47:26.242Z,11.90
2019-02-27T21:57:28.221Z,12.20
2019-02-27T22:07:33.246Z,12.10
2019-02-27T22:17:36.665Z,12.00
2019-02-27T22:27:38.299Z,12.10
2019-02-27T22:37:40.646Z,12.00
2019-02-27T22:47:43.548Z,11.90
2019-02-27T22:57:45.802Z,11.70
2019-02-27T23:07:51.687Z,11.50
2019-02-27T23:17:52.326Z,11.20
2019-02-27T23:27:54.291Z,11.00
2019-02-27T23:37:56.289Z,11.10
2019-02-27T23:47:59.289Z,11.00
2019-02-27T23:58:02.380Z,11.00
